Terminal Aerodrome Forecast
Issued by NWS Jackson, MS

Home | Current Version | Previous Version | Text Only | Print | Product List | Glossary On
Versions: 1 2 3 4 5 6 7 8 9 10 11 12 13 14 15 16 17
000
FTUS44 KJAN 261121
TAFJAN
TAF
KJAN 261121Z 2612/2712 19004KT P6SM FEW040 BKN050 BKN060
     FM261500 16007KT P6SM BKN025
     FM261800 16008KT P6SM VCTS BKN035CB
     FM270500 16008KT P6SM OVC100
     FM270700 16008KT P6SM OVC015
     FM270900 15007KT P6SM OVC007=

USA.gov is the U.S. government's official web portal to all federal, state and local government web resources and services.